createdAt,value
2022-09-20T00:03:42.939Z,100.00
2022-09-20T00:08:50.827Z,100.00
2022-09-20T00:13:59.912Z,100.00
2022-09-20T00:19:10.007Z,100.00
2022-09-20T00:24:19.445Z,100.00
2022-09-20T00:29:26.676Z,100.00
2022-09-20T00:34:51.352Z,100.00
2022-09-20T00:40:00.122Z,100.00
2022-09-20T00:45:09.936Z,100.00
2022-09-20T00:50:27.887Z,100.00
2022-09-20T00:55:37.663Z,100.00
2022-09-20T01:00:48.977Z,100.00
2022-09-20T01:05:57.467Z,100.00
2022-09-20T01:11:04.976Z,100.00
2022-09-20T01:16:16.363Z,100.00
2022-09-20T01:21:24.044Z,100.00
2022-09-20T01:26:53.573Z,100.00
2022-09-20T01:32:05.389Z,100.00
2022-09-20T01:37:25.524Z,100.00
2022-09-20T01:42:38.396Z,100.00
2022-09-20T01:47:53.934Z,100.00
2022-09-20T01:53:38.720Z,100.00
2022-09-20T01:59:31.440Z,100.00
2022-09-20T02:05:08.428Z,100.00
2022-09-20T02:10:36.485Z,100.00
2022-09-20T02:16:07.345Z,100.00
2022-09-20T02:21:28.763Z,100.00
2022-09-20T02:26:47.942Z,100.00
2022-09-20T02:32:11.228Z,100.00
2022-09-20T02:37:34.857Z,100.00
2022-09-20T02:42:47.545Z,100.00
2022-09-20T02:48:02.341Z,100.00
2022-09-20T02:53:26.539Z,100.00
2022-09-20T02:58:42.316Z,100.00
2022-09-20T03:03:59.068Z,100.00
2022-09-20T03:09:17.601Z,100.00
2022-09-20T03:24:15.337Z,100.00
2022-09-20T03:29:36.573Z,100.00
2022-09-20T03:34:54.343Z,100.00
2022-09-20T03:40:26.557Z,100.00
2022-09-20T03:46:04.366Z,100.00
2022-09-20T03:51:30.435Z,100.00
2022-09-20T03:57:19.581Z,100.00
2022-09-20T04:02:42.975Z,100.00
2022-09-20T04:08:05.239Z,100.00
2022-09-20T04:13:26.568Z,100.00
2022-09-20T04:18:41.287Z,100.00
2022-09-20T04:23:57.679Z,100.00
2022-09-20T04:29:20.427Z,100.00
2022-09-20T04:34:51.688Z,100.00
2022-09-20T04:40:11.094Z,100.00
2022-09-20T04:45:35.255Z,100.00
2022-09-20T04:51:12.930Z,100.00
2022-09-20T04:56:29.858Z,100.00
2022-09-20T05:02:26.145Z,100.00
2022-09-20T05:08:14.472Z,100.00
2022-09-20T05:13:39.791Z,100.00
2022-09-20T05:19:13.729Z,100.00
2022-09-20T05:24:40.266Z,100.00
2022-09-20T05:29:57.099Z,100.00
2022-09-20T05:35:13.943Z,100.00
2022-09-20T05:40:30.024Z,100.00
2022-09-20T05:45:53.972Z,100.00
2022-09-20T05:51:05.761Z,100.00
2022-09-20T05:56:23.692Z,100.00
2022-09-20T06:01:35.485Z,100.00
2022-09-20T06:06:57.201Z,100.00
2022-09-20T06:12:24.426Z,100.00
2022-09-20T06:17:38.571Z,99.98
2022-09-20T06:22:50.063Z,100.00
2022-09-20T06:28:01.465Z,99.77
2022-09-20T06:33:18.379Z,98.95
2022-09-20T06:38:59.171Z,98.70
2022-09-20T06:44:06.600Z,98.38
2022-09-20T06:49:13.588Z,98.07
2022-09-20T06:54:23.743Z,97.81
2022-09-20T06:59:32.180Z,97.95
2022-09-20T07:04:39.309Z,97.76
2022-09-20T07:09:50.215Z,97.84
2022-09-20T07:14:57.395Z,97.64
2022-09-20T07:20:17.411Z,97.52
2022-09-20T07:25:28.195Z,98.26
2022-09-20T07:30:35.378Z,98.26
2022-09-20T07:35:41.749Z,98.44
2022-09-20T07:45:13.325Z,97.44
2022-09-20T07:50:20.399Z,96.84
2022-09-20T07:55:27.254Z,95.62
2022-09-20T08:00:32.521Z,94.70
2022-09-20T08:05:39.660Z,92.49
2022-09-20T08:10:47.185Z,92.83
2022-09-20T08:16:02.323Z,91.80
2022-09-20T08:21:11.295Z,91.66
2022-09-20T08:26:20.410Z,90.81
2022-09-20T08:31:31.853Z,90.40
2022-09-20T08:36:41.417Z,89.30
2022-09-20T08:45:22.268Z,89.28
2022-09-20T08:50:31.093Z,89.43
2022-09-20T08:55:40.628Z,89.21
2022-09-20T09:00:49.853Z,89.14
2022-09-20T09:05:58.559Z,87.80
2022-09-20T09:11:14.178Z,87.26
2022-09-20T09:16:25.698Z,86.82
2022-09-20T09:21:39.063Z,85.67
2022-09-20T09:26:46.927Z,84.41
2022-09-20T09:31:55.369Z,85.26
2022-09-20T09:37:02.515Z,80.51
2022-09-20T09:42:26.907Z,79.42
2022-09-20T09:47:39.896Z,80.28
2022-09-20T09:53:00.695Z,79.56
2022-09-20T09:58:22.917Z,78.07
2022-09-20T10:03:53.029Z,79.36
2022-09-20T10:09:13.513Z,83.17
2022-09-20T10:14:30.855Z,85.60
2022-09-20T10:19:53.049Z,88.07
2022-09-20T10:25:15.681Z,89.53
2022-09-20T10:30:27.258Z,90.84
2022-09-20T10:35:53.255Z,91.24
2022-09-20T10:41:44.137Z,91.54
2022-09-20T10:47:02.761Z,91.20
2022-09-20T10:52:23.727Z,91.93
2022-09-20T10:58:03.574Z,93.38
2022-09-20T11:03:26.869Z,92.78
2022-09-20T11:08:38.364Z,91.37
2022-09-20T11:13:53.625Z,89.84
2022-09-20T11:19:07.459Z,88.03
2022-09-20T11:24:29.321Z,86.25
2022-09-20T11:29:41.087Z,84.52
2022-09-20T11:34:55.793Z,82.15
2022-09-20T11:40:08.490Z,85.19
2022-09-20T11:45:16.018Z,87.16
2022-09-20T11:50:52.860Z,87.19
2022-09-20T11:56:05.485Z,86.70
2022-09-20T12:01:16.495Z,86.51
2022-09-20T12:06:33.366Z,84.63
2022-09-20T12:11:42.132Z,82.51
2022-09-20T12:16:53.106Z,82.26
2022-09-20T12:22:31.107Z,81.88
2022-09-20T12:27:58.736Z,80.77
2022-09-20T12:33:06.052Z,83.24
2022-09-20T12:38:42.631Z,81.63
2022-09-20T12:44:07.130Z,78.31
2022-09-20T12:50:08.652Z,77.29
2022-09-20T12:55:38.223Z,76.72
2022-09-20T13:00:50.247Z,74.53
2022-09-20T13:06:27.441Z,73.62
2022-09-20T13:11:41.642Z,73.29
2022-09-20T13:16:55.228Z,69.55
2022-09-20T13:22:08.119Z,68.45
2022-09-20T13:27:20.780Z,67.57
2022-09-20T13:32:31.198Z,65.90
2022-09-20T13:37:43.643Z,69.91
2022-09-20T13:42:52.461Z,70.92
2022-09-20T13:48:02.616Z,71.87
2022-09-20T13:53:39.469Z,72.53
2022-09-20T13:58:46.813Z,72.81
2022-09-20T14:03:54.634Z,73.56
2022-09-20T14:09:09.844Z,74.05
2022-09-20T14:14:22.237Z,74.68
2022-09-20T14:19:33.351Z,75.11
2022-09-20T14:24:40.500Z,74.69
2022-09-20T14:29:49.184Z,74.62
2022-09-20T14:35:08.339Z,73.40
2022-09-20T14:40:26.953Z,72.77
2022-09-20T14:45:37.847Z,73.54
2022-09-20T14:50:47.334Z,73.67
2022-09-20T14:56:09.317Z,73.01
2022-09-20T15:01:25.031Z,73.91
2022-09-20T15:06:32.010Z,74.36
2022-09-20T15:11:39.651Z,74.62
2022-09-20T15:16:46.843Z,75.05
2022-09-20T15:21:54.226Z,75.48
2022-09-20T15:27:01.414Z,76.10
2022-09-20T15:32:09.429Z,76.26
2022-09-20T15:37:16.855Z,75.94
2022-09-20T15:42:24.244Z,75.39
2022-09-20T15:47:32.076Z,76.24
2022-09-20T15:52:41.414Z,77.02
2022-09-20T15:57:50.068Z,78.11
2022-09-20T16:02:57.455Z,78.55
2022-09-20T16:08:05.022Z,78.67
2022-09-20T16:13:12.503Z,79.03
2022-09-20T16:18:37.475Z,79.94
2022-09-20T16:23:49.555Z,80.83
2022-09-20T16:28:58.096Z,81.96
2022-09-20T16:34:07.745Z,83.09
2022-09-20T16:39:16.104Z,84.48
2022-09-20T16:44:27.707Z,85.00
2022-09-20T16:49:38.379Z,85.69
2022-09-20T16:54:45.549Z,85.99
2022-09-20T16:59:56.027Z,86.69
2022-09-20T17:05:03.777Z,87.04
2022-09-20T17:10:12.658Z,87.44
2022-09-20T17:15:21.407Z,88.05
2022-09-20T17:20:30.115Z,88.37
2022-09-20T17:25:47.546Z,88.69
2022-09-20T17:30:56.465Z,88.46
2022-09-20T17:36:06.930Z,89.03
2022-09-20T17:41:19.501Z,89.24
2022-09-20T17:46:30.354Z,89.39
2022-09-20T17:51:40.387Z,89.86
2022-09-20T17:56:49.873Z,89.78
2022-09-20T18:01:58.300Z,89.48
2022-09-20T18:07:08.581Z,89.55
2022-09-20T18:12:19.805Z,89.44
2022-09-20T18:17:28.491Z,89.40
2022-09-20T18:22:35.802Z,89.29
2022-09-20T18:27:43.836Z,89.47
2022-09-20T18:32:57.473Z,89.66
2022-09-20T18:38:05.388Z,89.75
2022-09-20T18:43:14.560Z,90.16
2022-09-20T18:48:23.432Z,90.30
2022-09-20T18:53:38.366Z,90.59
2022-09-20T18:58:45.901Z,90.92
2022-09-20T19:04:01.164Z,91.17
2022-09-20T19:09:20.558Z,91.64
2022-09-20T19:14:38.093Z,91.93
2022-09-20T19:19:54.866Z,92.20
2022-09-20T19:25:20.541Z,92.12
2022-09-20T19:30:32.859Z,92.84
2022-09-20T19:35:49.600Z,92.36
2022-09-20T19:41:04.152Z,92.24
2022-09-20T19:46:15.192Z,92.22
2022-09-20T19:51:23.857Z,92.43
2022-09-20T19:56:46.020Z,92.43
2022-09-20T20:01:55.248Z,92.77
2022-09-20T20:07:08.336Z,92.85
2022-09-20T20:12:25.901Z,93.15
2022-09-20T20:17:47.424Z,93.00
2022-09-20T20:34:17.803Z,93.29
2022-09-20T20:39:25.504Z,93.49
2022-09-20T20:44:35.219Z,93.46
2022-09-20T20:49:43.648Z,93.70
2022-09-20T20:54:51.308Z,93.60
2022-09-20T21:00:00.989Z,93.69
2022-09-20T21:05:10.722Z,93.33
2022-09-20T21:10:17.943Z,93.41
2022-09-20T21:15:27.527Z,93.18
2022-09-20T21:20:35.418Z,93.35
2022-09-20T21:25:45.419Z,93.99
2022-09-20T21:31:04.275Z,94.14
2022-09-20T21:36:14.029Z,94.20
2022-09-20T21:41:23.495Z,94.51
2022-09-20T21:46:33.405Z,95.09
2022-09-20T21:51:42.111Z,95.26
2022-09-20T21:56:50.139Z,95.51
2022-09-20T22:01:59.129Z,95.50
2022-09-20T22:07:06.312Z,95.52
2022-09-20T22:12:14.586Z,95.70
2022-09-20T22:17:24.326Z,95.69
2022-09-20T22:22:36.156Z,96.03
2022-09-20T22:27:45.563Z,96.20
2022-09-20T22:32:52.723Z,96.28
2022-09-20T22:38:03.342Z,96.30
2022-09-20T22:43:13.400Z,96.46
2022-09-20T22:48:22.593Z,96.44
2022-09-20T22:53:36.392Z,96.12
2022-09-20T22:58:46.578Z,96.14
2022-09-20T23:04:01.092Z,95.96
2022-09-20T23:09:10.587Z,95.77
2022-09-20T23:14:21.640Z,95.71
2022-09-20T23:19:31.134Z,95.48
2022-09-20T23:24:38.030Z,95.33
2022-09-20T23:29:45.841Z,95.33
2022-09-20T23:34:52.820Z,95.12
2022-09-20T23:40:03.174Z,94.99
2022-09-20T23:45:13.845Z,94.83
2022-09-20T23:50:21.377Z,94.68
2022-09-20T23:55:29.281Z,94.91
